Time;durP1;ratioP1;P1;durP2;ratioP2;P2;SDS_P1;SDS_P2;PMS_P1;PMS_P2;Temp;Humidity;BMP_temperature;BMP_pressure;BME280_temperature;BME280_humidity;BME280_pressure;Samples;Min_cycle;Max_cycle;Signal;HPM_P1;HPM_P2
2021/07/30 00:01:04;;;;;;;6.55;4.78;;;;;;;18.57;64.17;99664.91;154082;1100;103200;-80
2021/07/30 00:04:06;;;;;;;6.60;4.50;;;;;;;18.61;64.32;99654.46;154622;1098;103196;-79
2021/07/30 00:07:09;;;;;;;5.80;4.27;;;;;;;18.62;64.50;99661.53;153935;1100;103567;-79
2021/07/30 00:10:13;;;;;;;5.60;4.33;;;;;;;18.59;64.50;99651.16;154594;1098;103123;-81
2021/07/30 00:13:16;;;;;;;7.37;4.20;;;;;;;18.56;64.66;99648.91;154729;1098;104503;-81
2021/07/30 00:16:19;;;;;;;5.60;3.83;;;;;;;18.55;64.84;99655.34;154733;1098;103189;-81
2021/07/30 00:19:22;;;;;;;5.97;4.23;;;;;;;18.52;64.70;99653.92;154140;1100;103144;-81
2021/07/30 00:22:25;;;;;;;4.87;4.37;;;;;;;18.54;64.80;99648.30;154662;1093;103248;-82
2021/07/30 00:25:28;;;;;;;5.23;4.53;;;;;;;18.56;64.96;99647.03;154138;1093;103111;-79
2021/07/30 00:28:31;;;;;;;7.07;4.63;;;;;;;18.61;65.13;99643.66;154582;1093;103518;-82
2021/07/30 00:31:34;;;;;;;15.20;5.20;;;;;;;18.57;64.95;99650.55;154049;1100;103141;-81
2021/07/30 00:34:37;;;;;;;4.50;3.80;;;;;;;18.52;65.36;99650.41;154764;1093;103195;-80
2021/07/30 00:37:40;;;;;;;4.53;4.03;;;;;;;18.49;65.16;99656.23;154156;1100;103294;-81
2021/07/30 00:40:43;;;;;;;5.07;4.10;;;;;;;18.43;65.30;99653.36;154911;1098;103145;-79
2021/07/30 00:43:46;;;;;;;6.67;4.47;;;;;;;18.38;65.39;99653.20;154040;1100;103193;-83
2021/07/30 00:46:50;;;;;;;6.83;4.40;;;;;;;18.36;65.34;99649.05;154648;1093;103195;-83
2021/07/30 00:49:54;;;;;;;5.70;4.93;;;;;;;18.30;65.22;99650.75;154724;1093;103144;-79
2021/07/30 00:52:57;;;;;;;7.23;4.90;;;;;;;18.20;65.38;99648.53;154105;1100;103296;-80
2021/07/30 00:56:01;;;;;;;5.23;4.50;;;;;;;18.12;65.25;99648.80;154115;1100;103190;-81
2021/07/30 00:59:06;;;;;;;6.58;4.35;;;;;;;18.01;65.33;99652.19;154691;1093;103157;-81
2021/07/30 01:02:09;;;;;;;6.00;4.03;;;;;;;17.84;65.59;99657.25;154706;1093;103125;-79
2021/07/30 01:05:12;;;;;;;5.77;4.60;;;;;;;17.79;65.65;99651.66;153994;1094;103561;-79
2021/07/30 01:08:15;;;;;;;5.58;4.15;;;;;;;17.73;65.48;99647.13;153940;1100;103278;-79
2021/07/30 01:11:18;;;;;;;8.33;4.78;;;;;;;17.64;65.44;99649.23;154636;1098;103714;-80
2021/07/30 01:14:21;;;;;;;7.47;4.60;;;;;;;17.49;65.52;99649.48;154091;1093;103104;-81
2021/07/30 01:17:25;;;;;;;7.43;4.83;;;;;;;17.35;65.71;99643.31;154651;1093;103207;-81
2021/07/30 01:20:28;;;;;;;6.13;5.23;;;;;;;17.28;65.87;99645.20;154936;1093;103113;-78
2021/07/30 01:23:31;;;;;;;8.83;4.77;;;;;;;17.16;65.99;99630.72;154772;1098;103172;-78
2021/07/30 01:26:35;;;;;;;7.50;4.40;;;;;;;17.07;66.03;99644.44;154108;1093;103139;-79
2021/07/30 01:29:38;;;;;;;6.43;4.77;;;;;;;17.06;66.13;99639.25;154576;1098;103218;-79
2021/07/30 01:32:41;;;;;;;6.97;4.70;;;;;;;17.01;66.11;99637.20;153929;1093;103187;-76
2021/07/30 01:35:44;;;;;;;7.13;4.88;;;;;;;17.04;66.15;99644.02;154595;1098;103214;-78
2021/07/30 01:38:47;;;;;;;6.63;5.13;;;;;;;17.08;66.51;99634.47;154006;1100;103203;-79
2021/07/30 01:41:50;;;;;;;7.47;5.10;;;;;;;17.15;66.74;99629.05;154584;1098;103141;-78
2021/07/30 01:44:53;;;;;;;5.47;4.37;;;;;;;17.21;66.64;99629.05;153958;1100;103104;-78
2021/07/30 01:47:56;;;;;;;7.97;4.67;;;;;;;17.21;66.85;99636.32;154544;1098;103122;-79
2021/07/30 01:50:58;;;;;;;5.10;4.50;;;;;;;17.22;66.72;99630.69;154034;1100;103144;-79
2021/07/30 01:54:02;;;;;;;5.47;4.47;;;;;;;17.22;66.75;99630.69;154611;1098;103570;-78
2021/07/30 01:57:05;;;;;;;6.97;5.00;;;;;;;17.31;66.76;99635.88;154557;1098;103126;-81
2021/07/30 02:00:13;;;;;;;6.50;4.87;;;;;;;17.33;67.01;99636.48;154080;1093;103129;-79
2021/07/30 02:03:17;;;;;;;5.75;4.85;;;;;;;17.34;66.86;99633.59;154006;1096;103232;-78
2021/07/30 02:06:20;;;;;;;6.30;4.78;;;;;;;17.36;67.11;99630.66;154023;1093;103112;-80
2021/07/30 02:09:23;;;;;;;5.57;4.23;;;;;;;17.35;67.05;99634.41;154113;1100;103181;-79
2021/07/30 02:12:26;;;;;;;6.73;4.97;;;;;;;17.34;67.16;99638.98;154014;1100;103115;-79
2021/07/30 02:15:30;;;;;;;6.10;4.97;;;;;;;17.35;67.35;99637.10;154045;1093;103130;-78
2021/07/30 02:18:33;;;;;;;6.68;5.13;;;;;;;17.34;67.03;99638.98;153918;1100;103123;-76
2021/07/30 02:21:36;;;;;;;5.40;4.80;;;;;;;17.30;67.19;99637.72;153994;1101;103103;-79
2021/07/30 02:24:38;;;;;;;6.27;5.37;;;;;;;17.26;67.49;99641.88;154044;1093;103192;-79
2021/07/30 02:27:41;;;;;;;6.67;4.57;;;;;;;17.27;67.51;99633.59;154076;1101;103204;-77
2021/07/30 02:30:44;;;;;;;5.80;4.57;;;;;;;17.26;67.25;99650.83;153946;1100;103212;-79
2021/07/30 02:33:47;;;;;;;6.33;5.20;;;;;;;17.29;67.50;99644.17;154142;1094;103633;-79
2021/07/30 02:36:50;;;;;;;7.50;5.40;;;;;;;17.28;67.05;99645.20;154110;1093;103164;-84
2021/07/30 02:39:53;;;;;;;7.63;5.00;;;;;;;17.21;66.75;99637.14;154102;1093;103242;-79
2021/07/30 02:42:56;;;;;;;5.93;4.90;;;;;;;17.08;66.81;99640.69;154173;1093;103158;-79
2021/07/30 02:45:59;;;;;;;7.83;5.20;;;;;;;16.98;67.62;99639.48;154093;1093;103512;-78
2021/07/30 02:49:02;;;;;;;6.57;5.70;;;;;;;16.91;67.43;99631.39;153935;1100;103159;-78
2021/07/30 02:52:07;;;;;;;7.87;5.40;;;;;;;16.82;67.28;99649.66;153975;1100;103192;-81
2021/07/30 02:55:10;;;;;;;6.00;4.83;;;;;;;16.79;67.44;99636.56;154077;1100;103225;-78
2021/07/30 02:58:14;;;;;;;5.47;4.77;;;;;;;16.74;67.54;99636.34;154583;1093;103095;-83
2021/07/30 03:01:16;;;;;;;6.98;5.45;;;;;;;16.71;67.61;99649.43;154688;1098;103120;-81
2021/07/30 03:04:19;;;;;;;7.03;5.33;;;;;;;16.71;67.64;99644.86;154097;1093;103597;-79
2021/07/30 03:07:22;;;;;;;6.60;5.70;;;;;;;16.68;67.53;99643.39;154747;1098;103187;-81
2021/07/30 03:10:25;;;;;;;7.63;5.30;;;;;;;16.61;67.27;99639.05;154072;1100;103125;-79
2021/07/30 03:13:28;;;;;;;5.90;5.23;;;;;;;16.51;67.60;99650.23;154677;1098;103210;-80
2021/07/30 03:16:31;;;;;;;8.27;5.10;;;;;;;16.47;67.88;99651.69;154529;1093;103161;-82
2021/07/30 03:19:34;;;;;;;7.00;5.00;;;;;;;16.47;67.86;99647.16;154215;1093;103116;-83
2021/07/30 03:22:37;;;;;;;6.87;4.93;;;;;;;16.53;67.74;99652.73;154143;1093;103141;-81
2021/07/30 03:25:41;;;;;;;5.80;5.20;;;;;;;16.57;67.76;99651.27;154231;1098;103208;-82
2021/07/30 03:28:44;;;;;;;7.15;5.45;;;;;;;16.60;67.99;99645.48;154049;1100;103497;-80
2021/07/30 03:31:47;;;;;;;8.60;5.90;;;;;;;16.62;67.55;99646.92;154760;1098;103203;-80
2021/07/30 03:34:50;;;;;;;6.77;5.63;;;;;;;16.64;67.64;99661.02;153975;1093;103192;-80
2021/07/30 03:37:53;;;;;;;6.27;4.97;;;;;;;16.64;67.93;99660.19;154522;1098;103107;-80
2021/07/30 03:40:56;;;;;;;9.27;6.27;;;;;;;16.69;67.87;99657.72;153981;1093;103301;-80
2021/07/30 03:43:59;;;;;;;6.80;5.03;;;;;;;16.73;67.74;99656.27;154042;1093;103253;-80
2021/07/30 03:47:02;;;;;;;7.20;5.43;;;;;;;16.80;67.99;99654.40;154021;1091;103209;-80
2021/07/30 03:50:06;;;;;;;7.23;5.40;;;;;;;16.82;68.07;99652.36;153962;1100;103150;-78
2021/07/30 03:53:10;;;;;;;7.20;6.00;;;;;;;16.94;68.21;99654.42;153973;1100;103122;-79
2021/07/30 03:56:17;;;;;;;6.30;5.40;;;;;;;17.05;67.98;99651.91;153943;1093;103151;-80
2021/07/30 03:59:20;;;;;;;5.77;5.10;;;;;;;17.02;67.72;99652.31;153997;1093;103136;-80
2021/07/30 04:02:23;;;;;;;7.53;5.18;;;;;;;17.03;67.97;99653.14;154074;1093;103189;-80
2021/07/30 04:05:26;;;;;;;5.90;5.13;;;;;;;17.12;68.03;99656.45;154099;1093;103179;-80
2021/07/30 04:08:29;;;;;;;7.90;5.47;;;;;;;17.29;68.01;99664.92;154090;1100;103117;-80
2021/07/30 04:11:32;;;;;;;6.40;5.30;;;;;;;17.43;67.93;99653.04;154063;1101;103195;-80
2021/07/30 04:14:35;;;;;;;6.10;5.30;;;;;;;17.54;67.96;99648.87;153984;1100;103112;-80
2021/07/30 04:17:37;;;;;;;8.10;5.63;;;;;;;17.71;68.15;99657.31;154040;1093;103122;-82
2021/07/30 04:20:40;;;;;;;8.83;5.50;;;;;;;17.91;68.01;99652.66;154068;1093;103184;-80
2021/07/30 04:23:43;;;;;;;6.40;5.20;;;;;;;18.14;67.89;99664.78;154025;1093;103209;-82
2021/07/30 04:26:46;;;;;;;7.63;5.03;;;;;;;18.30;67.76;99653.45;154312;1100;103266;-79
2021/07/30 04:29:49;;;;;;;6.10;5.50;;;;;;;18.44;67.89;99659.61;155136;1100;103125;-82
2021/07/30 04:32:52;;;;;;;7.70;5.70;;;;;;;18.67;67.91;99650.91;154088;1100;103107;-82
2021/07/30 04:35:55;;;;;;;7.73;5.80;;;;;;;18.93;67.75;99654.44;154118;1100;103128;-82
2021/07/30 04:38:57;;;;;;;7.00;6.27;;;;;;;19.11;66.98;99648.22;154117;1100;103210;-83
2021/07/30 04:42:00;;;;;;;6.40;5.75;;;;;;;19.29;67.45;99660.95;154120;1100;103118;-83
2021/07/30 04:45:03;;;;;;;6.40;5.30;;;;;;;19.55;67.14;99657.94;154136;1100;103269;-78
2021/07/30 04:48:07;;;;;;;8.77;5.60;;;;;;;19.84;66.91;99655.50;154172;1100;103128;-82
2021/07/30 04:51:09;;;;;;;9.13;5.57;;;;;;;20.04;66.77;99649.84;154086;1093;103151;-81
2021/07/30 04:54:12;;;;;;;6.50;5.70;;;;;;;20.19;66.63;99654.84;154210;1093;103128;-77
2021/07/30 04:57:15;;;;;;;7.80;5.70;;;;;;;20.36;66.80;99663.95;154113;1093;103253;-84
2021/07/30 05:00:18;;;;;;;6.40;5.80;;;;;;;20.56;66.57;99671.76;154367;1093;103197;-84
2021/07/30 05:03:21;;;;;;;8.43;5.70;;;;;;;20.67;66.33;99661.19;154311;1094;103190;-80
2021/07/30 05:06:25;;;;;;;8.90;5.53;;;;;;;20.74;66.07;99657.30;154243;1101;103253;-85
2021/07/30 05:09:28;;;;;;;7.35;5.50;;;;;;;20.79;66.07;99643.88;154124;1093;103120;-79
2021/07/30 05:12:31;;;;;;;8.25;5.00;;;;;;;20.85;65.81;99654.86;154041;1093;103221;-82
2021/07/30 05:15:34;;;;;;;6.33;4.70;;;;;;;20.95;65.82;99655.08;154106;1100;103484;-82
2021/07/30 05:18:37;;;;;;;6.83;4.77;;;;;;;21.08;65.89;99654.03;154266;1100;103115;-81
2021/07/30 05:21:40;;;;;;;8.97;4.67;;;;;;;21.20;65.60;99649.41;154077;1100;103207;-80
2021/07/30 05:24:43;;;;;;;6.87;5.30;;;;;;;21.38;65.65;99646.55;154446;1098;103139;-79
2021/07/30 05:27:45;;;;;;;6.83;4.90;;;;;;;21.56;65.30;99644.77;154403;1093;103133;-81
2021/07/30 05:30:48;;;;;;;6.20;4.60;;;;;;;21.68;64.63;99644.73;154354;1098;103675;-80
2021/07/30 05:33:51;;;;;;;5.60;4.67;;;;;;;21.82;64.29;99640.66;154369;1098;103189;-81
2021/07/30 05:36:54;;;;;;;4.70;4.20;;;;;;;21.96;64.04;99635.78;154491;1098;103203;-81
2021/07/30 05:39:56;;;;;;;8.80;5.03;;;;;;;22.12;63.69;99634.98;154554;1093;103225;-79
2021/07/30 05:42:59;;;;;;;8.67;5.20;;;;;;;22.24;63.52;99640.34;154418;1093;103561;-80
2021/07/30 05:46:03;;;;;;;7.93;4.53;;;;;;;22.41;63.07;99651.27;154280;1093;103190;-80
2021/07/30 05:49:06;;;;;;;5.20;4.30;;;;;;;22.52;62.51;99649.56;154485;1098;103231;-79
2021/07/30 05:52:09;;;;;;;5.78;4.50;;;;;;;22.71;62.32;99652.83;154627;1093;103111;-76
2021/07/30 05:55:12;;;;;;;5.70;4.43;;;;;;;22.84;61.82;99655.22;154506;1093;103211;-78
2021/07/30 05:58:15;;;;;;;6.55;4.45;;;;;;;22.90;61.90;99656.97;154174;1093;103212;-79
2021/07/30 06:01:18;;;;;;;5.17;4.47;;;;;;;22.90;60.94;99650.68;154230;1093;103185;-82
2021/07/30 06:04:21;;;;;;;6.43;3.97;;;;;;;22.97;61.09;99656.78;154664;1098;103197;-87
2021/07/30 06:07:24;;;;;;;7.57;4.10;;;;;;;23.08;60.62;99658.61;154347;1100;103129;-81
2021/07/30 06:10:27;;;;;;;4.73;3.93;;;;;;;23.20;60.85;99655.78;154597;1093;103564;-83
2021/07/30 06:13:30;;;;;;;5.00;4.20;;;;;;;23.35;60.61;99657.08;154596;1098;103108;-82
2021/07/30 06:16:32;;;;;;;5.15;4.05;;;;;;;23.47;59.67;99649.60;154594;1098;103139;-80
2021/07/30 06:19:35;;;;;;;5.93;4.00;;;;;;;23.48;59.81;99652.08;154319;1093;103285;-80
2021/07/30 06:22:38;;;;;;;5.33;4.23;;;;;;;23.55;59.20;99651.88;154138;1100;103119;-78
2021/07/30 06:25:41;;;;;;;5.87;4.20;;;;;;;23.66;59.37;99655.55;154091;1101;103192;-78
2021/07/30 06:28:43;;;;;;;8.20;4.10;;;;;;;23.68;58.14;99651.49;154632;1098;103104;-79
2021/07/30 06:31:46;;;;;;;6.33;3.87;;;;;;;23.58;58.36;99656.02;154614;1093;103186;-78
2021/07/30 06:34:49;;;;;;;4.97;3.90;;;;;;;23.55;59.03;99653.78;154590;1098;103187;-79
2021/07/30 06:37:52;;;;;;;5.07;3.77;;;;;;;23.59;58.43;99657.64;154049;1100;103237;-79
2021/07/30 06:40:55;;;;;;;6.27;3.80;;;;;;;23.58;57.66;99658.73;154535;1093;103211;-78
2021/07/30 06:43:58;;;;;;;5.45;3.90;;;;;;;23.58;57.82;99658.73;153987;1100;103193;-79
2021/07/30 06:47:02;;;;;;;6.43;4.10;;;;;;;23.59;55.15;99652.19;154016;1100;103227;-79
2021/07/30 06:50:06;;;;;;;6.00;3.55;;;;;;;23.63;55.82;99648.70;154170;1100;103221;-79
2021/07/30 06:53:09;;;;;;;4.45;3.43;;;;;;;23.80;56.94;99651.38;153971;1094;103445;-83
2021/07/30 06:56:13;;;;;;;3.93;3.23;;;;;;;23.86;53.99;99653.08;154494;1098;103548;-87
2021/07/30 06:59:16;;;;;;;4.60;3.30;;;;;;;23.77;55.18;99654.60;154740;1098;103180;-83
2021/07/30 07:02:19;;;;;;;4.97;3.40;;;;;;;23.78;52.47;99641.80;154580;1098;103477;-80
2021/07/30 07:05:22;;;;;;;5.13;3.40;;;;;;;23.75;52.58;99639.57;154928;1098;103576;-80
2021/07/30 07:08:24;;;;;;;4.20;3.28;;;;;;;23.87;54.82;99646.56;154069;1100;103269;-80
2021/07/30 07:11:27;;;;;;;4.63;2.90;;;;;;;24.02;54.17;99645.06;154297;1094;103190;-78
2021/07/30 07:14:30;;;;;;;3.67;3.07;;;;;;;23.98;53.76;99641.22;154221;1098;103097;-78
2021/07/30 07:17:33;;;;;;;3.90;3.13;;;;;;;23.98;54.07;99638.48;154406;1098;103208;-79
2021/07/30 07:20:36;;;;;;;3.27;2.73;;;;;;;23.97;53.89;99645.03;154639;1098;103183;-83
2021/07/30 07:23:39;;;;;;;5.05;3.10;;;;;;;23.93;53.36;99641.18;154497;1096;103258;-83
2021/07/30 07:26:42;;;;;;;6.37;3.17;;;;;;;23.89;53.83;99641.68;154133;1101;103264;-81
2021/07/30 07:29:44;;;;;;;4.50;3.13;;;;;;;23.92;52.14;99640.34;154411;1098;103120;-82
2021/07/30 07:32:48;;;;;;;4.40;3.17;;;;;;;23.87;53.50;99630.22;154083;1093;103196;-80
2021/07/30 07:35:53;;;;;;;7.25;3.20;;;;;;;23.87;52.75;99640.30;154261;1093;103221;-78
2021/07/30 07:38:56;;;;;;;4.20;3.30;;;;;;;23.78;52.73;99637.19;154015;1093;103122;-78
2021/07/30 07:41:59;;;;;;;5.97;2.80;;;;;;;23.86;53.45;99623.11;153998;1101;103178;-75
2021/07/30 07:45:02;;;;;;;4.20;3.20;;;;;;;23.98;52.99;99630.31;154045;1100;103569;-75
2021/07/30 07:48:06;;;;;;;5.00;2.60;;;;;;;24.02;52.25;99634.16;153991;1100;103147;-74
2021/07/30 07:51:09;;;;;;;3.00;2.70;;;;;;;24.05;52.46;99636.39;154029;1093;103132;-77
2021/07/30 07:54:11;;;;;;;5.50;3.10;;;;;;;24.09;52.08;99621.16;154033;1100;103192;-72
2021/07/30 07:57:14;;;;;;;4.00;2.80;;;;;;;24.18;51.73;99633.25;154020;1100;103184;-73
2021/07/30 08:00:18;;;;;;;4.17;2.93;;;;;;;24.22;50.57;99628.92;154274;1100;103111;-73
2021/07/30 08:03:21;;;;;;;3.73;2.80;;;;;;;24.22;50.78;99633.56;153985;1100;103275;-71
2021/07/30 08:06:24;;;;;;;6.70;2.57;;;;;;;24.26;49.73;99635.50;153964;1100;103562;-73
2021/07/30 08:09:26;;;;;;;3.97;3.13;;;;;;;24.41;50.47;99636.73;154072;1098;103129;-72
2021/07/30 08:12:29;;;;;;;5.77;2.57;;;;;;;24.46;49.38;99636.75;154001;1093;103283;-74
2021/07/30 08:15:32;;;;;;;6.23;2.80;;;;;;;24.50;49.48;99635.18;153985;1100;103190;-73
2021/07/30 08:18:35;;;;;;;3.77;2.60;;;;;;;24.37;49.64;99638.34;153951;1093;103128;-73
2021/07/30 08:21:38;;;;;;;3.77;2.57;;;;;;;24.34;48.74;99636.11;153957;1100;103167;-73
2021/07/30 08:24:40;;;;;;;3.65;2.50;;;;;;;24.32;49.10;99627.38;154181;1093;103165;-76
2021/07/30 08:27:43;;;;;;;4.78;2.70;;;;;;;24.27;47.16;99628.98;154047;1100;103523;-74
2021/07/30 08:30:46;;;;;;;4.78;2.98;;;;;;;24.23;49.31;99627.02;154066;1100;103212;-74
2021/07/30 08:33:49;;;;;;;5.37;2.83;;;;;;;24.27;47.06;99625.44;154065;1100;103550;-79
2021/07/30 08:36:52;;;;;;;5.80;2.87;;;;;;;24.24;48.86;99615.85;154174;1100;103047;-79
2021/07/30 08:39:55;;;;;;;4.07;2.63;;;;;;;24.30;48.27;99622.98;154111;1100;103215;-79
2021/07/30 08:42:58;;;;;;;4.17;2.70;;;;;;;24.34;48.26;99619.75;154114;1100;103192;-80
2021/07/30 08:46:01;;;;;;;3.80;2.73;;;;;;;24.41;48.69;99628.55;154153;1100;103324;-79
2021/07/30 08:49:06;;;;;;;5.20;2.73;;;;;;;24.43;48.03;99624.47;154213;1101;103205;-79
2021/07/30 08:52:11;;;;;;;7.10;2.63;;;;;;;24.37;46.44;99620.06;154130;1093;103184;-78
2021/07/30 08:55:16;;;;;;;3.30;2.67;;;;;;;24.33;46.98;99618.09;153985;1100;103151;-78
2021/07/30 08:58:19;;;;;;;8.28;3.28;;;;;;;24.30;46.53;99609.36;154024;1093;103195;-78
2021/07/30 09:01:22;;;;;;;5.33;2.90;;;;;;;24.23;47.54;99611.50;154080;1100;103202;-77
2021/07/30 09:04:29;;;;;;;3.83;2.70;;;;;;;24.36;47.06;99620.31;154118;1093;103189;-73
2021/07/30 09:07:40;;;;;;;3.68;2.70;;;;;;;24.44;46.26;99614.38;153994;1100;103218;-74
2021/07/30 09:10:44;;;;;;;4.68;2.60;;;;;;;24.47;46.51;99624.78;153993;1100;103141;-75
2021/07/30 09:13:47;;;;;;;3.93;2.78;;;;;;;24.48;45.94;99626.41;154549;1098;103110;-75
2021/07/30 09:16:51;;;;;;;4.77;2.50;;;;;;;24.52;46.77;99605.77;154003;1093;103203;-74
2021/07/30 09:20:01;;;;;;;5.37;2.70;;;;;;;24.63;46.69;99612.10;154099;1100;103192;-75
2021/07/30 09:23:04;;;;;;;2.73;2.40;;;;;;;24.78;46.67;99605.94;154015;1094;103155;-75
2021/07/30 09:26:07;;;;;;;3.57;2.40;;;;;;;24.92;47.03;99614.48;153975;1093;103191;-74
2021/07/30 09:29:12;;;;;;;3.80;2.40;;;;;;;25.11;44.85;99623.87;153940;1100;103237;-74
2021/07/30 09:32:17;;;;;;;3.40;2.63;;;;;;;25.14;45.02;99611.62;153997;1093;103272;-74
2021/07/30 09:35:20;;;;;;;5.00;2.53;;;;;;;25.26;45.93;99601.32;153967;1100;103130;-74
2021/07/30 09:38:23;;;;;;;4.60;2.73;;;;;;;25.43;44.93;99610.13;154308;1100;103554;-74
2021/07/30 09:41:27;;;;;;;2.97;2.63;;;;;;;25.59;46.10;99601.98;154113;1100;103136;-75
2021/07/30 09:44:30;;;;;;;6.60;2.80;;;;;;;25.70;45.40;99592.73;154250;1093;103117;-75
2021/07/30 09:47:46;;;;;;;6.43;2.70;;;;;;;25.89;45.28;99594.97;154040;1100;104748;-74
2021/07/30 09:50:48;;;;;;;5.57;2.80;;;;;;;25.98;44.40;99583.27;154024;1100;103125;-74
2021/07/30 09:53:52;;;;;;;3.90;2.50;;;;;;;26.06;45.58;99579.17;154194;1098;103192;-75
2021/07/30 09:56:55;;;;;;;4.80;2.73;;;;;;;26.04;44.64;99581.36;154200;1098;103122;-74
2021/07/30 10:00:00;;;;;;;3.30;2.38;;;;;;;26.04;44.68;99581.36;153972;1093;103204;-75
2021/07/30 10:03:08;;;;;;;5.45;2.68;;;;;;;26.16;45.00;99573.70;154085;1093;103103;-74
2021/07/30 10:06:13;;;;;;;4.00;2.78;;;;;;;26.27;44.23;99563.59;153976;1100;103193;-75
2021/07/30 10:09:19;;;;;;;4.33;2.60;;;;;;;26.23;42.16;99570.68;154010;1100;103145;-74
2021/07/30 10:12:23;;;;;;;4.33;2.60;;;;;;;26.03;43.81;99563.30;153981;1100;103122;-75
2021/07/30 10:15:26;;;;;;;5.03;2.50;;;;;;;25.99;44.21;99571.22;153950;1100;103195;-74
2021/07/30 10:18:30;;;;;;;3.23;2.85;;;;;;;26.04;43.86;99562.22;153985;1093;103260;-76
2021/07/30 10:21:34;;;;;;;3.50;2.67;;;;;;;26.13;43.76;99557.83;154032;1100;103125;-74
2021/07/30 10:24:44;;;;;;;2.85;2.53;;;;;;;26.11;43.52;99554.55;154138;1093;103129;-75
2021/07/30 10:27:48;;;;;;;3.08;2.50;;;;;;;25.76;43.28;99553.39;154004;1100;104658;-74
2021/07/30 10:30:53;;;;;;;3.60;2.60;;;;;;;25.68;41.72;99551.20;154074;1093;103197;-73
2021/07/30 10:33:56;;;;;;;3.03;2.40;;;;;;;25.74;43.40;99557.50;154016;1100;103261;-74
2021/07/30 10:36:59;;;;;;;4.40;2.50;;;;;;;25.83;42.79;99545.76;154022;1100;103215;-74
2021/07/30 10:40:23;;;;;;;3.63;2.80;;;;;;;25.96;43.22;99549.91;153990;1100;103186;-73
2021/07/30 10:43:28;;;;;;;4.70;2.17;;;;;;;26.08;42.78;99548.80;154061;1100;103248;-74
2021/07/30 10:46:31;;;;;;;2.43;2.23;;;;;;;26.15;43.54;99544.70;154100;1093;103130;-78
2021/07/30 10:49:41;;;;;;;4.88;2.98;;;;;;;26.14;43.00;99536.80;154009;1100;103222;-74
2021/07/30 10:52:44;;;;;;;3.47;2.50;;;;;;;26.10;42.41;99535.67;154143;1100;103147;-73
2021/07/30 10:55:47;;;;;;;6.57;2.47;;;;;;;25.96;42.13;99540.88;153981;1093;103191;-73
2021/07/30 10:59:06;;;;;;;2.30;2.05;;;;;;;25.78;42.78;99523.88;153964;1100;103196;-73
2021/07/30 11:02:09;;;;;;;4.33;2.43;;;;;;;25.57;42.25;99520.30;154217;1093;103225;-73
2021/07/30 11:05:13;;;;;;;4.10;2.28;;;;;;;25.49;42.21;99520.02;154001;1093;103311;-73
2021/07/30 11:08:16;;;;;;;4.00;2.40;;;;;;;25.46;40.89;99522.20;154599;1098;103218;-73
2021/07/30 11:11:36;;;;;;;2.28;2.00;;;;;;;25.50;42.22;99521.64;154594;1093;103107;-73
2021/07/30 11:14:42;;;;;;;2.53;2.10;;;;;;;25.65;42.37;99508.02;154568;1093;103553;-73
2021/07/30 11:17:49;;;;;;;3.83;2.43;;;;;;;25.70;42.22;99508.03;154654;1098;103259;-73
2021/07/30 11:20:58;;;;;;;3.45;2.20;;;;;;;25.70;42.29;99509.95;154626;1092;103291;-73
2021/07/30 11:24:03;;;;;;;4.50;2.20;;;;;;;25.75;42.24;99493.55;154671;1098;103136;-73
2021/07/30 11:27:07;;;;;;;2.30;1.90;;;;;;;25.81;42.53;99498.75;154538;1098;103125;-73
2021/07/30 11:30:11;;;;;;;3.27;2.60;;;;;;;25.88;42.16;99503.13;154653;1093;103240;-72
2021/07/30 11:33:16;;;;;;;2.83;2.30;;;;;;;25.93;42.33;99492.23;154590;1098;103144;-72
2021/07/30 11:36:19;;;;;;;3.15;2.35;;;;;;;26.01;42.23;99494.41;154676;1093;103264;-73
2021/07/30 11:39:31;;;;;;;5.80;2.40;;;;;;;25.93;41.36;99493.05;154613;1098;103143;-73
2021/07/30 11:42:34;;;;;;;2.77;2.37;;;;;;;25.96;42.46;99487.05;154622;1098;103192;-73
2021/07/30 11:45:38;;;;;;;3.53;2.13;;;;;;;26.09;41.97;99479.38;154504;1098;103608;-73
2021/07/30 11:48:46;;;;;;;3.93;2.50;;;;;;;26.23;42.48;99480.44;154409;1092;103260;-73
2021/07/30 11:51:49;;;;;;;3.80;2.78;;;;;;;26.27;42.16;99475.23;154525;1098;103370;-73
2021/07/30 11:54:52;;;;;;;4.63;2.50;;;;;;;26.26;41.93;99477.16;154590;1098;103224;-73
2021/07/30 11:57:56;;;;;;;3.30;2.47;;;;;;;26.25;41.82;99478.24;154643;1093;103195;-73
2021/07/30 12:01:09;;;;;;;3.63;2.30;;;;;;;26.07;41.54;99476.91;154576;1093;103139;-73
2021/07/30 12:04:15;;;;;;;3.30;2.37;;;;;;;26.12;41.59;99485.11;154636;1093;103133;-73
2021/07/30 12:07:20;;;;;;;4.47;2.40;;;;;;;26.29;41.81;99481.25;154582;1098;103193;-73
2021/07/30 12:10:23;;;;;;;3.53;2.63;;;;;;;26.21;40.95;99477.16;154675;1093;103131;-72
2021/07/30 12:13:29;;;;;;;2.70;2.30;;;;;;;26.19;41.47;99476.61;154610;1093;103128;-73
2021/07/30 12:16:32;;;;;;;3.55;2.48;;;;;;;26.19;41.77;99458.32;154602;1098;103202;-72
2021/07/30 12:19:36;;;;;;;5.20;2.40;;;;;;;26.24;41.73;99461.02;154847;1093;103199;-73
2021/07/30 12:22:42;;;;;;;2.70;2.37;;;;;;;26.28;41.07;99461.30;154787;1098;103332;-72
2021/07/30 12:25:48;;;;;;;3.00;2.60;;;;;;;26.32;41.29;99454.17;154711;1098;103193;-71
2021/07/30 12:28:51;;;;;;;4.37;2.67;;;;;;;26.39;41.12;99456.63;154691;1098;103132;-72
2021/07/30 12:32:12;;;;;;;3.40;2.40;;;;;;;26.35;40.31;99456.36;154637;1093;103192;-71
2021/07/30 12:35:16;;;;;;;;;;;;;;;26.33;41.06;99457.72;154688;1098;103188;-71
2021/07/30 12:38:20;;;;;;;3.90;2.63;;;;;;;26.37;41.24;99453.36;154649;1098;103599;-71
2021/07/30 12:41:26;;;;;;;2.57;2.37;;;;;;;26.40;41.22;99439.92;154013;1100;103111;-73
2021/07/30 12:44:29;;;;;;;3.25;2.38;;;;;;;26.46;40.61;99432.52;154673;1093;103129;-73
2021/07/30 12:47:34;;;;;;;2.60;2.40;;;;;;;26.50;40.85;99443.73;153984;1093;103231;-72
2021/07/30 12:50:39;;;;;;;2.65;2.38;;;;;;;26.51;41.05;99443.45;154704;1098;103238;-73
2021/07/30 12:53:59;;;;;;;4.00;2.60;;;;;;;26.48;40.57;99432.25;154021;1100;103260;-74
2021/07/30 12:57:04;;;;;;;3.13;2.33;;;;;;;26.35;40.46;99425.44;154374;1098;103065;-74
2021/07/30 13:00:10;;;;;;;2.93;2.40;;;;;;;26.33;40.26;99435.84;154110;1094;103609;-74
2021/07/30 13:03:28;;;;;;;3.40;2.33;;;;;;;26.34;40.46;99426.55;154625;1093;103193;-76
2021/07/30 13:06:33;;;;;;;3.73;2.33;;;;;;;26.37;40.68;99429.55;154004;1093;103184;-74
2021/07/30 13:09:36;;;;;;;3.97;2.60;;;;;;;26.32;39.92;99435.02;154605;1098;103199;-74
2021/07/30 13:12:39;;;;;;;8.00;2.60;;;;;;;26.30;39.99;99433.67;154710;1093;103183;-74
2021/07/30 13:15:43;;;;;;;2.80;2.47;;;;;;;26.28;39.59;99427.66;154028;1100;103260;-73
2021/07/30 13:18:46;;;;;;;2.40;2.20;;;;;;;26.13;39.74;99412.91;154254;1098;103179;-74
2021/07/30 13:21:49;;;;;;;2.90;2.20;;;;;;;26.05;40.05;99418.95;154099;1093;103129;-74
2021/07/30 13:24:54;;;;;;;3.70;2.20;;;;;;;26.04;40.21;99411.86;153989;1093;103197;-73
2021/07/30 13:27:58;;;;;;;2.38;2.00;;;;;;;26.09;40.15;99406.36;154229;1100;103214;-74
2021/07/30 13:31:01;;;;;;;2.95;2.40;;;;;;;26.13;40.09;99404.71;153985;1100;103104;-76
2021/07/30 13:34:05;;;;;;;2.83;2.03;;;;;;;26.10;39.21;99409.91;154180;1093;103274;-75
2021/07/30 13:37:08;;;;;;;3.73;2.20;;;;;;;26.03;39.27;99402.01;154640;1098;103562;-75
2021/07/30 13:40:12;;;;;;;3.83;2.20;;;;;;;26.01;39.98;99402.28;154000;1100;103646;-75
2021/07/30 13:43:14;;;;;;;2.90;2.08;;;;;;;26.02;39.71;99394.89;154760;1098;103519;-74
2021/07/30 13:46:17;;;;;;;3.23;2.60;;;;;;;26.04;39.63;99398.20;154646;1098;103194;-74
2021/07/30 13:49:20;;;;;;;3.57;2.20;;;;;;;26.07;38.78;99391.34;153955;1100;103138;-74
2021/07/30 13:52:23;;;;;;;3.65;2.20;;;;;;;26.04;39.59;99393.54;154116;1100;103199;-74
2021/07/30 13:55:26;;;;;;;3.85;2.30;;;;;;;26.04;39.13;99379.06;154045;1093;103267;-74
2021/07/30 13:58:31;;;;;;;4.60;2.10;;;;;;;26.07;38.90;99383.95;154145;1093;103187;-73
2021/07/30 14:01:34;;;;;;;2.60;2.10;;;;;;;26.11;39.97;99385.03;154018;1093;103136;-74
2021/07/30 14:04:37;;;;;;;2.37;2.10;;;;;;;26.12;39.26;99391.34;154582;1093;103219;-75